createdAt,value
2018-11-23T00:01:00.129Z,17.20
2018-11-23T00:06:16.136Z,16.10
2018-11-23T00:08:56.029Z,17.23
2018-11-23T00:11:29.859Z,16.63
2018-11-23T00:16:45.940Z,17.80
2018-11-23T00:19:19.770Z,17.87
2018-11-23T00:21:54.308Z,18.67
2018-11-23T00:27:09.692Z,18.47
2018-11-23T00:29:43.585Z,19.87
2018-11-23T00:34:57.728Z,19.50
2018-11-23T00:37:31.520Z,19.37
2018-11-23T00:40:05.365Z,17.77
2018-11-23T00:42:40.167Z,18.80
2018-11-23T00:47:56.683Z,19.17
2018-11-23T00:50:30.518Z,19.90
2018-11-23T00:53:04.385Z,20.97
2018-11-23T00:55:38.237Z,20.23
2018-11-23T01:01:02.240Z,21.17
2018-11-23T01:03:36.819Z,20.63
2018-11-23T01:09:01.301Z,20.83
2018-11-23T01:11:35.092Z,20.57
2018-11-23T01:14:09.072Z,21.17
2018-11-23T01:16:42.903Z,20.20
2018-11-23T01:19:17.473Z,20.20
2018-11-23T01:21:51.496Z,19.90
2018-11-23T01:24:25.353Z,21.03
2018-11-23T01:29:41.347Z,19.77
2018-11-23T01:32:15.913Z,20.50
2018-11-23T01:37:31.311Z,20.77
2018-11-23T01:40:05.145Z,20.27
2018-11-23T01:48:04.469Z,20.27
2018-11-23T01:50:38.592Z,20.90
2018-11-23T01:55:54.332Z,21.83
2018-11-23T01:58:28.888Z,21.03
2018-11-23T02:01:02.705Z,20.87
2018-11-23T02:03:36.529Z,21.07
2018-11-23T02:06:10.375Z,22.07
2018-11-23T02:15:39.329Z,24.27
2018-11-23T02:18:13.900Z,22.97
2018-11-23T02:20:47.720Z,22.93
2018-11-23T02:26:03.014Z,23.60
2018-11-23T02:28:36.856Z,22.47
2018-11-23T02:31:11.445Z,23.83
2018-11-23T02:36:27.289Z,23.90
2018-11-23T02:39:01.142Z,24.40
2018-11-23T02:41:34.957Z,23.80
2018-11-23T02:46:50.257Z,25.43
2018-11-23T02:49:24.083Z,25.87
2018-11-23T02:51:57.936Z,25.40
2018-11-23T02:57:13.266Z,26.40
2018-11-23T02:59:47.097Z,24.73
2018-11-23T03:02:20.947Z,24.50
2018-11-23T03:04:55.741Z,24.87
2018-11-23T03:10:13.510Z,24.53
2018-11-23T03:12:47.988Z,24.33
2018-11-23T03:15:22.264Z,25.63
2018-11-23T03:17:56.126Z,27.53
2018-11-23T03:20:29.984Z,25.43
2018-11-23T03:23:03.832Z,25.37
2018-11-23T03:25:37.668Z,25.50
2018-11-23T03:28:12.258Z,25.33
2018-11-23T03:30:46.204Z,26.17
2018-11-23T03:33:19.967Z,26.07
2018-11-23T03:35:53.781Z,25.60
2018-11-23T03:38:27.593Z,24.40
2018-11-23T03:41:01.501Z,24.77
2018-11-23T03:43:35.357Z,24.90
2018-11-23T03:46:09.222Z,24.77
2018-11-23T03:48:43.052Z,27.17
2018-11-23T03:51:17.684Z,25.97
2018-11-23T03:53:52.305Z,24.77
2018-11-23T03:56:26.833Z,23.47
2018-11-23T03:59:00.673Z,24.30
2018-11-23T04:01:34.526Z,24.10
2018-11-23T04:06:49.904Z,23.63
2018-11-23T04:09:23.726Z,23.90
2018-11-23T04:11:57.588Z,23.67
2018-11-23T04:17:27.560Z,23.17
2018-11-23T04:20:18.038Z,24.43
2018-11-23T04:22:54.720Z,24.53
2018-11-23T04:25:28.580Z,23.57
2018-11-23T04:28:02.697Z,25.33
2018-11-23T04:30:36.534Z,24.90
2018-11-23T04:33:10.357Z,22.37
2018-11-23T04:38:30.085Z,21.57
2018-11-23T04:41:04.668Z,22.10
2018-11-23T04:46:19.986Z,24.60
2018-11-23T04:48:53.757Z,22.00
2018-11-23T04:51:27.616Z,23.90
2018-11-23T04:56:43.693Z,23.00
2018-11-23T04:59:17.517Z,22.83
2018-11-23T05:01:51.399Z,22.73
2018-11-23T05:04:25.242Z,22.23
2018-11-23T05:06:59.124Z,21.87
2018-11-23T05:12:14.406Z,24.87
2018-11-23T05:17:28.414Z,24.97
2018-11-23T05:20:02.981Z,23.47
2018-11-23T05:25:19.625Z,22.97
2018-11-23T05:27:53.765Z,22.73
2018-11-23T05:30:28.784Z,23.43
2018-11-23T05:33:02.693Z,22.70
2018-11-23T05:35:36.517Z,22.33
2018-11-23T05:38:11.083Z,22.70
2018-11-23T05:40:45.232Z,22.50
2018-11-23T05:43:19.049Z,23.57
2018-11-23T05:48:34.701Z,25.37
2018-11-23T05:51:08.509Z,27.50
2018-11-23T05:53:42.653Z,25.23
2018-11-23T05:56:17.337Z,24.50
2018-11-23T05:58:51.173Z,23.60
2018-11-23T06:01:24.996Z,24.17
2018-11-23T06:03:58.796Z,24.03
2018-11-23T06:06:32.635Z,23.77
2018-11-23T06:09:09.296Z,23.80
2018-11-23T06:11:44.563Z,24.03
2018-11-23T06:14:19.165Z,24.60
2018-11-23T06:16:53.393Z,23.27
2018-11-23T06:19:27.197Z,27.83
2018-11-23T06:22:01.694Z,28.93
2018-11-23T06:24:35.953Z,27.63
2018-11-23T06:27:10.522Z,31.83
2018-11-23T06:29:44.471Z,32.10
2018-11-23T06:33:15.257Z,33.53
2018-11-23T06:38:30.881Z,31.93
2018-11-23T06:41:10.191Z,31.07
2018-11-23T06:43:38.598Z,31.10
2018-11-23T06:46:13.150Z,30.50
2018-11-23T06:56:53.684Z,24.53
2018-11-23T06:59:28.228Z,30.60
2018-11-23T07:02:02.069Z,28.17
2018-11-23T07:07:17.516Z,31.53
2018-11-23T07:09:52.184Z,25.73
2018-11-23T07:15:11.367Z,21.83
2018-11-23T07:17:45.201Z,20.57
2018-11-23T07:20:19.069Z,21.97
2018-11-23T07:22:52.922Z,24.13
2018-11-23T07:25:26.740Z,25.47
2018-11-23T07:28:01.278Z,26.03
2018-11-23T07:35:57.535Z,25.57
2018-11-23T07:38:32.100Z,21.00
2018-11-23T07:42:01.601Z,20.67
2018-11-23T07:47:22.103Z,21.67
2018-11-23T07:49:55.929Z,19.50
2018-11-23T07:52:29.857Z,18.47
2018-11-23T07:55:04.041Z,18.83
2018-11-23T07:57:37.853Z,18.17
2018-11-23T08:00:20.190Z,18.77
2018-11-23T08:02:54.015Z,17.47
2018-11-23T08:05:27.845Z,18.40
2018-11-23T08:08:02.764Z,17.23
2018-11-23T08:15:59.873Z,17.83
2018-11-23T08:18:34.400Z,20.50
2018-11-23T08:21:08.318Z,17.15
2018-11-23T08:26:21.773Z,17.30
2018-11-23T08:28:55.605Z,18.42
2018-11-23T08:31:29.479Z,17.35
2018-11-23T08:36:55.614Z,18.90
2018-11-23T08:39:29.444Z,18.50
2018-11-23T08:44:44.801Z,18.90
2018-11-23T08:47:19.741Z,18.15
2018-11-23T08:55:18.156Z,18.45
2018-11-23T08:57:53.145Z,19.15
2018-11-23T09:00:30.041Z,18.70
2018-11-23T09:05:46.180Z,19.70
2018-11-23T09:08:20.821Z,19.48
2018-11-23T09:10:54.702Z,20.27
2018-11-23T09:16:10.397Z,19.80
2018-11-23T09:18:44.261Z,19.15
2018-11-23T09:21:18.158Z,18.95
2018-11-23T09:26:40.808Z,18.77
2018-11-23T09:29:14.704Z,19.50
2018-11-23T09:31:49.337Z,19.62
2018-11-23T09:37:09.904Z,18.92
2018-11-23T09:39:43.742Z,18.12
2018-11-23T09:42:29.449Z,18.42
2018-11-23T09:50:31.939Z,18.27
2018-11-23T09:55:46.540Z,17.55
2018-11-23T09:58:21.164Z,18.30
2018-11-23T10:00:55.910Z,17.05
2018-11-23T10:06:11.214Z,15.60
2018-11-23T10:08:45.061Z,16.02
2018-11-23T10:11:19.715Z,15.35
2018-11-23T10:16:35.816Z,14.85
2018-11-23T10:27:18.784Z,13.93
2018-11-23T10:29:55.340Z,15.58
2018-11-23T10:35:10.265Z,13.62
2018-11-23T10:37:45.574Z,13.55
2018-11-23T10:40:20.809Z,13.55
2018-11-23T10:45:35.160Z,14.15
2018-11-23T10:48:10.009Z,14.38
2018-11-23T10:50:43.988Z,14.80
2018-11-23T10:56:00.062Z,15.95
2018-11-23T10:58:34.612Z,15.32
2018-11-23T11:01:27.353Z,16.35
2018-11-23T11:07:09.002Z,15.55
2018-11-23T11:09:42.801Z,12.65
2018-11-23T11:14:58.616Z,11.05
2018-11-23T11:17:32.442Z,9.45
2018-11-23T11:20:06.376Z,9.18
2018-11-23T11:22:41.001Z,8.30
2018-11-23T11:25:15.617Z,8.83
2018-11-23T11:27:50.153Z,8.63
2018-11-23T11:41:18.969Z,11.03
2018-11-23T11:46:49.661Z,9.03
2018-11-23T11:49:24.212Z,9.85
2018-11-23T11:51:58.076Z,9.40
2018-11-23T11:57:13.377Z,12.05
2018-11-23T11:59:47.349Z,13.08
2018-11-23T12:05:01.106Z,9.75
2018-11-23T12:07:34.932Z,8.05
2018-11-23T12:10:13.012Z,8.68
2018-11-23T12:12:46.841Z,6.45
2018-11-23T12:18:02.948Z,4.97
2018-11-23T12:20:36.892Z,5.03
2018-11-23T12:23:11.451Z,4.97
2018-11-23T12:25:45.316Z,4.22
2018-11-23T12:31:00.972Z,4.25
2018-11-23T12:33:34.823Z,4.45
2018-11-23T12:36:08.693Z,4.12
2018-11-23T12:38:43.173Z,4.10
2018-11-23T12:41:17.134Z,4.00
2018-11-23T12:46:38.669Z,3.90
2018-11-23T12:49:12.996Z,3.85
2018-11-23T12:51:46.833Z,3.72
2018-11-23T12:54:20.637Z,3.70
2018-11-23T12:59:36.805Z,3.75
2018-11-23T13:02:10.732Z,4.70
2018-11-23T13:04:44.649Z,4.50
2018-11-23T13:07:18.516Z,4.90
2018-11-23T13:09:52.392Z,4.22
2018-11-23T13:12:26.924Z,4.37
2018-11-23T13:15:01.460Z,4.95
2018-11-23T13:17:35.325Z,4.53
2018-11-23T13:20:14.922Z,4.00
2018-11-23T13:22:48.720Z,4.45
2018-11-23T13:25:27.489Z,6.08
2018-11-23T13:28:01.822Z,4.45
2018-11-23T13:30:36.738Z,4.70
2018-11-23T13:33:10.538Z,4.72
2018-11-23T13:35:44.342Z,5.62
2018-11-23T13:38:18.177Z,4.78
2018-11-23T13:40:52.780Z,4.85
2018-11-23T13:46:06.095Z,7.20
2018-11-23T13:48:39.923Z,6.58
2018-11-23T13:51:13.821Z,5.30
2018-11-23T13:53:47.728Z,4.42
2018-11-23T13:56:21.570Z,3.72
2018-11-23T13:58:55.376Z,3.98
2018-11-23T14:01:29.200Z,3.60
2018-11-23T14:04:03.769Z,3.75
2018-11-23T14:06:37.616Z,3.65
2018-11-23T14:09:12.961Z,4.72
2018-11-23T14:11:46.792Z,4.15
2018-11-23T14:17:03.625Z,24.95
2018-11-23T14:19:38.163Z,5.10
2018-11-23T14:22:12.085Z,5.12
2018-11-23T14:24:46.195Z,4.20
2018-11-23T14:30:01.577Z,4.30
2018-11-23T14:38:03.303Z,4.47
2018-11-23T14:40:37.149Z,4.60
2018-11-23T14:45:57.669Z,5.15
2018-11-23T14:48:32.222Z,6.42
2018-11-23T14:51:06.382Z,6.17
2018-11-23T14:53:41.023Z,6.30
2018-11-23T14:56:15.148Z,5.95
2018-11-23T14:58:49.997Z,6.53
2018-11-23T15:01:23.824Z,6.83
2018-11-23T15:03:58.029Z,5.72
2018-11-23T15:06:31.829Z,6.03
2018-11-23T15:09:06.342Z,7.08
2018-11-23T15:11:41.030Z,6.58
2018-11-23T15:14:14.869Z,7.05
2018-11-23T15:16:49.400Z,7.28
2018-11-23T15:19:23.469Z,7.20
2018-11-23T15:21:57.469Z,7.45
2018-11-23T15:24:31.353Z,8.08
2018-11-23T15:27:05.185Z,7.80
2018-11-23T15:29:39.018Z,7.25
2018-11-23T15:32:14.357Z,8.60
2018-11-23T15:37:32.237Z,8.53
2018-11-23T15:40:08.506Z,8.78
2018-11-23T15:45:24.861Z,9.35
2018-11-23T15:47:59.404Z,9.33
2018-11-23T15:50:37.411Z,9.58
2018-11-23T15:55:59.596Z,10.53
2018-11-23T15:58:33.509Z,11.37
2018-11-23T16:01:07.565Z,11.00
2018-11-23T16:06:22.960Z,10.70
2018-11-23T16:08:56.833Z,10.32
2018-11-23T16:11:30.764Z,9.70
2018-11-23T16:16:46.139Z,10.50
2018-11-23T16:19:20.713Z,10.88
2018-11-23T16:21:54.580Z,9.90
2018-11-23T16:27:10.757Z,11.05
2018-11-23T16:29:44.840Z,11.07
2018-11-23T16:35:00.226Z,12.23
2018-11-23T16:37:34.081Z,12.37
2018-11-23T16:40:12.663Z,13.68
2018-11-23T16:45:29.364Z,13.70
2018-11-23T16:48:04.604Z,14.53
2018-11-23T16:50:38.540Z,15.57
2018-11-23T16:55:54.658Z,15.67
2018-11-23T16:58:28.518Z,15.13
2018-11-23T17:01:02.455Z,14.60
2018-11-23T17:03:36.297Z,15.50
2018-11-23T17:08:51.625Z,13.33
2018-11-23T17:11:25.629Z,12.00
2018-11-23T17:16:40.980Z,12.20
2018-11-23T17:19:14.824Z,12.97
2018-11-23T17:21:49.394Z,12.53
2018-11-23T17:27:04.929Z,12.80
2018-11-23T17:29:38.764Z,13.33
2018-11-23T17:34:54.167Z,14.23
2018-11-23T17:37:27.975Z,13.80
2018-11-23T17:40:01.833Z,13.47
2018-11-23T17:45:29.088Z,14.27
2018-11-23T17:48:03.294Z,14.20
2018-11-23T17:50:38.046Z,13.17
2018-11-23T17:53:11.866Z,13.83
2018-11-23T17:55:45.721Z,12.63
2018-11-23T18:01:01.755Z,12.30
2018-11-23T18:06:38.161Z,12.97
2018-11-23T18:09:16.063Z,13.43
2018-11-23T18:11:49.887Z,15.33
2018-11-23T18:14:23.688Z,25.63
2018-11-23T18:16:57.514Z,18.07
2018-11-23T18:19:32.041Z,14.70
2018-11-23T18:22:06.644Z,14.93
2018-11-23T18:24:40.447Z,14.97
2018-11-23T18:27:15.069Z,14.67
2018-11-23T18:29:48.903Z,13.70
2018-11-23T18:32:23.587Z,14.23
2018-11-23T18:34:58.262Z,13.77
2018-11-23T18:37:33.166Z,14.83
2018-11-23T18:40:10.271Z,12.97
2018-11-23T18:45:26.207Z,12.10
2018-11-23T18:48:00.010Z,12.50
2018-11-23T18:50:33.865Z,13.23
2018-11-23T18:55:49.208Z,13.10
2018-11-23T18:58:23.001Z,12.73
2018-11-23T19:00:57.291Z,13.37
2018-11-23T19:03:31.912Z,14.07
2018-11-23T19:08:47.329Z,13.30
2018-11-23T19:11:21.192Z,13.90
2018-11-23T19:13:55.330Z,12.50
2018-11-23T19:16:30.790Z,13.50
2018-11-23T19:19:05.374Z,14.83
2018-11-23T19:21:39.489Z,14.47
2018-11-23T19:24:13.333Z,13.43
2018-11-23T19:26:47.264Z,11.90
2018-11-23T19:29:21.524Z,12.83
2018-11-23T19:31:55.357Z,12.63
2018-11-23T19:34:29.362Z,12.17
2018-11-23T19:37:03.249Z,11.30
2018-11-23T19:39:37.081Z,11.77
2018-11-23T19:42:10.846Z,12.33
2018-11-23T19:47:26.074Z,11.27
2018-11-23T19:49:59.875Z,12.87
2018-11-23T19:52:35.212Z,12.63
2018-11-23T19:55:09.589Z,12.03
2018-11-23T20:00:29.948Z,12.10
2018-11-23T20:03:03.781Z,12.93
2018-11-23T20:08:20.780Z,12.47
2018-11-23T20:10:55.542Z,11.43
2018-11-23T20:13:30.101Z,12.17
2018-11-23T20:16:04.121Z,12.20
2018-11-23T20:18:37.973Z,12.20
2018-11-23T20:21:12.104Z,12.03
2018-11-23T20:23:45.999Z,13.07
2018-11-23T20:26:19.904Z,11.87
2018-11-23T20:28:53.729Z,12.20
2018-11-23T20:31:27.550Z,12.10
2018-11-23T20:34:01.433Z,12.17
2018-11-23T20:36:36.115Z,11.73
2018-11-23T20:39:11.843Z,12.47
2018-11-23T20:41:46.066Z,12.97
2018-11-23T20:47:02.561Z,12.17
2018-11-23T20:49:37.143Z,12.67
2018-11-23T20:52:10.993Z,13.03
2018-11-23T20:57:27.800Z,12.60
2018-11-23T21:00:01.759Z,12.30
2018-11-23T21:05:21.641Z,11.63
2018-11-23T21:07:56.216Z,11.20
2018-11-23T21:10:30.323Z,12.13
2018-11-23T21:15:50.848Z,12.93
2018-11-23T21:18:24.687Z,12.30
2018-11-23T21:20:59.267Z,13.67
2018-11-23T21:26:14.845Z,11.73
2018-11-23T21:28:48.960Z,11.53
2018-11-23T21:31:22.846Z,12.87
2018-11-23T21:33:56.724Z,12.63
2018-11-23T21:36:30.593Z,12.30
2018-11-23T21:39:04.454Z,11.60
2018-11-23T21:41:39.478Z,11.93
2018-11-23T21:46:55.147Z,11.77
2018-11-23T21:49:28.940Z,12.53
2018-11-23T21:52:02.832Z,12.33
2018-11-23T21:54:36.704Z,12.00
2018-11-23T21:57:11.325Z,12.57
2018-11-23T21:59:45.150Z,12.00
2018-11-23T22:05:06.000Z,11.97
2018-11-23T22:07:39.989Z,13.57
2018-11-23T22:10:15.824Z,14.30
2018-11-23T22:15:31.145Z,11.30
2018-11-23T22:18:05.089Z,11.40
2018-11-23T22:20:39.240Z,11.13
2018-11-23T22:23:13.875Z,11.47
2018-11-23T22:25:48.504Z,10.50
2018-11-23T22:31:04.895Z,11.13
2018-11-23T22:33:38.997Z,10.23
2018-11-23T22:36:13.137Z,10.77
2018-11-23T22:41:33.941Z,9.90
2018-11-23T22:46:49.674Z,9.97
2018-11-23T22:49:23.535Z,8.43
2018-11-23T22:51:57.373Z,8.60
2018-11-23T22:57:15.956Z,8.13
2018-11-23T22:59:50.528Z,7.93
2018-11-23T23:05:06.820Z,7.70
2018-11-23T23:07:40.641Z,7.57
2018-11-23T23:10:14.727Z,7.37
2018-11-23T23:12:48.748Z,7.70
2018-11-23T23:15:22.950Z,7.40
2018-11-23T23:17:57.455Z,7.13
2018-11-23T23:20:31.316Z,7.27
2018-11-23T23:23:05.124Z,6.20
2018-11-23T23:25:38.912Z,7.40
2018-11-23T23:28:13.126Z,7.20
2018-11-23T23:30:47.841Z,6.67
2018-11-23T23:33:21.960Z,7.10
2018-11-23T23:35:55.796Z,6.47
2018-11-23T23:41:11.125Z,6.90
2018-11-23T23:43:44.997Z,5.80
2018-11-23T23:46:19.145Z,6.47
2018-11-23T23:48:53.289Z,6.13
2018-11-23T23:51:27.175Z,6.47
2018-11-23T23:54:00.957Z,5.93
2018-11-23T23:56:35.561Z,6.33
2018-11-23T23:59:09.389Z,5.87
